createdAt,value
2018-07-08T00:00:31.630Z,20.81
2018-07-08T00:01:12.017Z,20.81
2018-07-08T00:01:52.366Z,20.78
2018-07-08T00:02:32.783Z,20.81
2018-07-08T00:03:13.280Z,20.83
2018-07-08T00:03:53.626Z,20.78
2018-07-08T00:04:34.164Z,20.82
2018-07-08T00:05:14.405Z,20.81
2018-07-08T00:05:54.852Z,20.81
2018-07-08T00:06:35.265Z,20.75
2018-07-08T00:07:15.672Z,20.78
2018-07-08T00:07:56.137Z,20.78
2018-07-08T00:08:36.636Z,20.72
2018-07-08T00:09:17.251Z,20.72
2018-07-08T00:09:57.569Z,20.71
2018-07-08T00:10:37.978Z,20.69
2018-07-08T00:11:18.293Z,20.66
2018-07-08T00:11:58.790Z,20.73
2018-07-08T00:12:39.190Z,20.64
2018-07-08T00:13:19.701Z,20.71
2018-07-08T00:14:00.095Z,20.69
2018-07-08T00:14:40.408Z,20.66
2018-07-08T00:15:20.834Z,20.66
2018-07-08T00:16:01.266Z,20.63
2018-07-08T00:16:41.616Z,20.63
2018-07-08T00:17:22.022Z,20.64
2018-07-08T00:18:02.446Z,20.66
2018-07-08T00:18:42.866Z,20.64
2018-07-08T00:19:23.276Z,20.69
2018-07-08T00:20:03.643Z,20.63
2018-07-08T00:20:44.037Z,20.6
2018-07-08T00:21:24.508Z,20.68
2018-07-08T00:22:04.897Z,20.63
2018-07-08T00:22:45.417Z,20.66
2018-07-08T00:23:25.801Z,20.61
2018-07-08T00:24:06.310Z,20.66
2018-07-08T00:24:46.609Z,20.63
2018-07-08T00:25:27.061Z,20.64
2018-07-08T00:26:07.410Z,20.66
2018-07-08T00:26:47.935Z,20.64
2018-07-08T00:27:28.305Z,20.66
2018-07-08T00:28:08.678Z,20.71
2018-07-08T00:28:49.128Z,20.63
2018-07-08T00:29:29.523Z,20.69
2018-07-08T00:30:09.912Z,20.63
2018-07-08T00:30:50.323Z,20.6
2018-07-08T00:31:30.718Z,20.56
2018-07-08T00:32:11.074Z,20.54
2018-07-08T00:32:51.601Z,20.46
2018-07-08T00:33:32.055Z,20.48
2018-07-08T00:34:12.416Z,20.53
2018-07-08T00:34:52.868Z,20.48
2018-07-08T00:35:33.282Z,20.42
2018-07-08T00:36:13.657Z,20.5
2018-07-08T00:37:51.959Z,20.41
2018-07-08T00:38:32.640Z,20.4
2018-07-08T00:39:13.023Z,20.4
2018-07-08T00:39:53.469Z,20.31
2018-07-08T00:40:33.788Z,20.27
2018-07-08T00:41:14.258Z,20.31
2018-07-08T00:41:54.659Z,20.33
2018-07-08T00:42:35.157Z,20.3
2018-07-08T00:43:15.475Z,20.16
2018-07-08T00:43:55.898Z,20.17
2018-07-08T00:44:36.363Z,20.08
2018-07-08T00:45:16.883Z,20.13
2018-07-08T00:45:57.157Z,20.16
2018-07-08T00:46:37.609Z,20.13
2018-07-08T00:47:17.944Z,20.08
2018-07-08T00:47:58.354Z,20.13
2018-07-08T00:48:38.767Z,20.13
2018-07-08T00:49:19.168Z,20.08
2018-07-08T00:49:59.618Z,20.04
2018-07-08T00:50:40.000Z,20.05
2018-07-08T00:51:20.483Z,20.02
2018-07-08T00:52:00.867Z,20.12
2018-07-08T00:52:41.378Z,20.08
2018-07-08T00:53:21.612Z,20.04
2018-07-08T00:54:02.006Z,20.07
2018-07-08T00:54:42.447Z,20.04
2018-07-08T00:55:22.999Z,20.05
2018-07-08T00:56:03.349Z,20.05
2018-07-08T00:56:43.750Z,19.98
2018-07-08T00:57:24.232Z,19.9
2018-07-08T00:58:04.574Z,19.97
2018-07-08T00:58:44.978Z,19.89
2018-07-08T00:59:25.581Z,19.89
2018-07-08T01:00:05.979Z,19.92
2018-07-08T01:00:46.330Z,19.89
2018-07-08T01:01:26.788Z,19.75
2018-07-08T01:02:07.116Z,19.78
2018-07-08T01:02:47.518Z,19.79
2018-07-08T01:03:27.968Z,19.89
2018-07-08T01:04:08.326Z,19.8
2018-07-08T01:04:48.816Z,19.94
2018-07-08T01:05:29.151Z,19.79
2018-07-08T01:06:09.569Z,19.79
2018-07-08T01:06:50.018Z,19.79
2018-07-08T01:07:30.440Z,19.82
2018-07-08T01:08:10.865Z,19.78
2018-07-08T01:08:51.339Z,19.83
2018-07-08T01:09:31.608Z,19.71
2018-07-08T01:10:12.097Z,19.72
2018-07-08T01:10:52.414Z,19.78
2018-07-08T01:11:32.913Z,19.75
2018-07-08T01:12:13.276Z,19.71
2018-07-08T01:12:53.610Z,19.71
2018-07-08T01:13:34.094Z,19.76
2018-07-08T01:14:14.506Z,19.76
2018-07-08T01:14:57.858Z,19.76
2018-07-08T01:15:38.231Z,19.68
2018-07-08T01:16:18.570Z,19.76
2018-07-08T01:16:59.008Z,19.78
2018-07-08T01:17:39.371Z,19.78
2018-07-08T01:18:19.859Z,19.75
2018-07-08T01:19:00.227Z,19.7
2018-07-08T01:19:40.677Z,19.76
2018-07-08T01:20:21.124Z,19.76
2018-07-08T01:21:01.528Z,19.71
2018-07-08T01:21:41.920Z,19.71
2018-07-08T01:22:22.360Z,19.76
2018-07-08T01:23:02.708Z,19.72
2018-07-08T01:23:43.096Z,19.75
2018-07-08T01:24:23.499Z,19.72
2018-07-08T01:25:03.910Z,19.67
2018-07-08T01:25:44.235Z,19.71
2018-07-08T01:26:24.792Z,19.72
2018-07-08T01:27:05.147Z,19.67
2018-07-08T01:27:45.561Z,19.6
2018-07-08T01:28:25.958Z,19.6
2018-07-08T01:29:06.329Z,19.57
2018-07-08T01:29:46.796Z,19.55
2018-07-08T01:30:27.218Z,19.61
2018-07-08T01:31:07.600Z,19.61
2018-07-08T01:31:48.185Z,19.6
2018-07-08T01:32:28.516Z,19.53
2018-07-08T01:33:08.839Z,19.6
2018-07-08T01:33:49.404Z,19.6
2018-07-08T01:34:29.763Z,19.57
2018-07-08T01:35:10.089Z,19.55
2018-07-08T01:35:50.453Z,19.61
2018-07-08T01:36:30.994Z,19.62
2018-07-08T01:37:11.322Z,19.58
2018-07-08T01:37:51.691Z,19.58
2018-07-08T01:38:32.128Z,19.57
2018-07-08T01:39:12.666Z,19.57
2018-07-08T01:39:53.274Z,19.5
2018-07-08T01:40:33.747Z,19.46
2018-07-08T01:41:14.118Z,19.61
2018-07-08T01:41:54.495Z,19.46
2018-07-08T01:42:35.000Z,19.42
2018-07-08T01:43:15.396Z,19.49
2018-07-08T01:43:55.800Z,19.5
2018-07-08T01:44:36.263Z,19.53
2018-07-08T01:45:16.800Z,19.52
2018-07-08T01:45:57.078Z,19.47
2018-07-08T01:46:37.693Z,19.5
2018-07-08T01:47:17.990Z,19.58
2018-07-08T01:47:58.434Z,19.53
2018-07-08T01:48:38.920Z,19.5
2018-07-08T01:49:19.254Z,19.6
2018-07-08T01:49:59.746Z,19.65
2018-07-08T01:50:40.074Z,19.55
2018-07-08T01:51:20.521Z,19.58
2018-07-08T01:52:00.957Z,19.52
2018-07-08T01:52:41.300Z,19.6
2018-07-08T01:53:21.756Z,19.52
2018-07-08T01:54:02.208Z,19.49
2018-07-08T01:54:42.578Z,19.55
2018-07-08T01:55:23.030Z,19.46
2018-07-08T01:56:03.513Z,19.45
2018-07-08T01:56:43.906Z,19.5
2018-07-08T01:57:24.270Z,19.45
2018-07-08T01:58:04.741Z,19.43
2018-07-08T01:58:45.106Z,19.52
2018-07-08T01:59:25.566Z,19.55
2018-07-08T02:00:05.922Z,19.52
2018-07-08T02:00:46.263Z,19.4
2018-07-08T02:01:26.647Z,19.49
2018-07-08T02:02:07.077Z,19.38
2018-07-08T02:02:47.517Z,19.42
2018-07-08T02:03:28.113Z,19.31
2018-07-08T02:04:08.422Z,19.27
2018-07-08T02:04:48.857Z,19.27
2018-07-08T02:05:29.377Z,19.34
2018-07-08T02:06:09.892Z,19.28
2018-07-08T02:06:50.220Z,19.27
2018-07-08T02:07:30.669Z,19.25
2018-07-08T02:08:11.034Z,19.23
2018-07-08T02:08:51.442Z,19.23
2018-07-08T02:09:31.941Z,19.17
2018-07-08T02:10:12.315Z,19.16
2018-07-08T02:10:52.743Z,19.09
2018-07-08T02:11:33.085Z,19.12
2018-07-08T02:12:13.518Z,19.15
2018-07-08T02:12:53.965Z,19.05
2018-07-08T02:13:34.367Z,19.1
2018-07-08T02:14:14.719Z,19.1
2018-07-08T02:14:55.165Z,19.07
2018-07-08T02:15:35.565Z,19.06
2018-07-08T02:16:16.024Z,19.02
2018-07-08T02:16:56.387Z,19.02
2018-07-08T02:17:36.843Z,19.05
2018-07-08T02:18:17.236Z,19.06
2018-07-08T02:18:57.667Z,19.05
2018-07-08T02:19:38.088Z,18.97
2018-07-08T02:20:18.556Z,18.96
2018-07-08T02:20:58.904Z,18.93
2018-07-08T02:21:39.315Z,18.83
2018-07-08T02:22:19.836Z,18.91
2018-07-08T02:23:00.184Z,18.91
2018-07-08T02:23:40.575Z,18.83
2018-07-08T02:24:21.056Z,18.78
2018-07-08T02:25:01.567Z,18.78
2018-07-08T02:25:41.883Z,18.82
2018-07-08T02:26:22.384Z,18.82
2018-07-08T02:27:02.780Z,18.83
2018-07-08T02:27:43.300Z,18.79
2018-07-08T02:28:23.630Z,18.84
2018-07-08T02:29:04.056Z,18.84
2018-07-08T02:29:44.408Z,18.84
2018-07-08T02:30:24.901Z,18.86
2018-07-08T02:31:05.259Z,18.82
2018-07-08T02:31:45.708Z,18.86
2018-07-08T02:32:26.096Z,18.82
2018-07-08T02:33:06.518Z,18.79
2018-07-08T02:33:46.969Z,18.89
2018-07-08T02:34:27.372Z,18.86
2018-07-08T02:35:07.770Z,18.79
2018-07-08T02:35:48.219Z,18.86
2018-07-08T02:36:31.362Z,18.82
2018-07-08T02:37:11.742Z,18.69
2018-07-08T02:37:52.197Z,18.76
2018-07-08T02:38:32.598Z,18.86
2018-07-08T02:39:13.052Z,18.76
2018-07-08T02:39:53.465Z,18.69
2018-07-08T02:40:33.862Z,18.75
2018-07-08T02:42:26.258Z,18.57
2018-07-08T02:43:06.800Z,18.6
2018-07-08T02:43:47.154Z,18.6
2018-07-08T02:44:27.595Z,18.57
2018-07-08T02:45:08.025Z,18.53
2018-07-08T02:45:48.473Z,18.56
2018-07-08T02:46:28.811Z,18.62
2018-07-08T02:47:09.380Z,18.59
2018-07-08T02:47:49.709Z,18.6
2018-07-08T02:48:30.099Z,18.5
2018-07-08T02:49:10.462Z,18.53
2018-07-08T02:49:50.960Z,18.53
2018-07-08T02:50:31.366Z,18.46
2018-07-08T02:51:11.714Z,18.5
2018-07-08T02:51:52.179Z,18.49
2018-07-08T02:52:32.568Z,18.42
2018-07-08T02:53:12.942Z,18.38
2018-07-08T02:53:53.353Z,18.38
2018-07-08T02:54:33.770Z,18.38
2018-07-08T02:55:14.170Z,18.35
2018-07-08T02:55:54.623Z,18.36
2018-07-08T02:56:35.079Z,18.46
2018-07-08T02:57:15.515Z,18.29
2018-07-08T02:57:55.903Z,18.26
2018-07-08T02:58:36.280Z,18.34
2018-07-08T02:59:16.738Z,18.31
2018-07-08T02:59:57.145Z,18.29
2018-07-08T03:00:37.536Z,18.29
2018-07-08T03:01:17.973Z,18.28
2018-07-08T03:01:58.366Z,18.26
2018-07-08T03:02:38.825Z,18.25
2018-07-08T03:03:19.333Z,18.25
2018-07-08T03:03:59.589Z,18.31
2018-07-08T03:04:39.968Z,18.25
2018-07-08T03:05:20.449Z,18.25
2018-07-08T03:06:00.801Z,18.16
2018-07-08T03:06:41.254Z,18.28
2018-07-08T03:07:21.648Z,18.19
2018-07-08T03:08:02.164Z,18.2
2018-07-08T03:08:42.555Z,18.17
2018-07-08T03:09:22.906Z,18.19
2018-07-08T03:10:03.345Z,18.23
2018-07-08T03:10:43.760Z,18.26
2018-07-08T03:11:24.218Z,18.25
2018-07-08T03:12:04.673Z,18.25
2018-07-08T03:12:45.010Z,18.36
2018-07-08T03:13:25.386Z,18.31
2018-07-08T03:14:05.730Z,18.26
2018-07-08T03:14:46.182Z,18.26
2018-07-08T03:15:26.635Z,18.26
2018-07-08T03:16:07.072Z,18.16
2018-07-08T03:16:47.494Z,18.21
2018-07-08T03:17:27.962Z,18.13
2018-07-08T03:18:08.366Z,18.2
2018-07-08T03:18:48.902Z,18.19
2018-07-08T03:19:29.345Z,18.17
2018-07-08T03:20:09.673Z,18.21
2018-07-08T03:20:50.180Z,18.16
2018-07-08T03:21:30.482Z,18.16
2018-07-08T03:22:11.062Z,18.2
2018-07-08T03:22:51.434Z,18.19
2018-07-08T03:23:31.939Z,18.19
2018-07-08T03:24:12.267Z,18.2
2018-07-08T03:24:52.662Z,18.13
2018-07-08T03:25:33.147Z,18.13
2018-07-08T03:26:13.465Z,18.05
2018-07-08T03:26:53.961Z,18.11
2018-07-08T03:27:34.323Z,18.1
2018-07-08T03:28:14.833Z,17.99
2018-07-08T03:28:55.189Z,18.07
2018-07-08T03:29:35.510Z,18.02
2018-07-08T03:30:15.923Z,18.04
2018-07-08T03:30:56.332Z,17.96
2018-07-08T03:31:36.796Z,18.01
2018-07-08T03:32:17.169Z,17.96
2018-07-08T03:32:57.618Z,17.95
2018-07-08T03:33:38.086Z,17.92
2018-07-08T03:34:18.544Z,17.94
2018-07-08T03:34:58.951Z,17.94
2018-07-08T03:37:11.625Z,17.96
2018-07-08T03:37:53.194Z,17.94
2018-07-08T03:38:33.618Z,17.91
2018-07-08T03:39:14.008Z,17.92
2018-07-08T03:39:54.419Z,18.01
2018-07-08T03:40:34.847Z,17.92
2018-07-08T03:41:15.315Z,17.96
2018-07-08T03:41:55.678Z,17.98
2018-07-08T03:42:36.342Z,17.92
2018-07-08T03:43:16.779Z,17.95
2018-07-08T03:43:57.130Z,17.98
2018-07-08T03:44:37.587Z,17.98
2018-07-08T03:45:18.008Z,18.02
2018-07-08T03:45:58.382Z,18.04
2018-07-08T03:46:38.786Z,18.04
2018-07-08T03:47:19.276Z,18.02
2018-07-08T03:47:59.706Z,18.02
2018-07-08T03:48:40.097Z,17.95
2018-07-08T03:49:20.521Z,17.86
2018-07-08T03:50:01.039Z,17.83
2018-07-08T03:50:41.337Z,17.92
2018-07-08T03:51:21.743Z,17.86
2018-07-08T03:52:02.157Z,17.87
2018-07-08T03:52:42.576Z,17.94
2018-07-08T03:53:23.043Z,17.84
2018-07-08T03:54:03.425Z,17.96
2018-07-08T03:54:43.886Z,17.86
2018-07-08T03:55:24.312Z,17.87
2018-07-08T03:56:04.740Z,17.79
2018-07-08T03:56:45.156Z,17.83
2018-07-08T03:57:25.614Z,17.87
2018-07-08T03:58:06.038Z,17.81
2018-07-08T03:58:46.580Z,17.8
2018-07-08T03:59:27.054Z,17.79
2018-07-08T04:00:07.405Z,17.84
2018-07-08T04:00:47.859Z,17.73
2018-07-08T04:01:28.314Z,17.83
2018-07-08T04:02:08.728Z,17.74
2018-07-08T04:02:49.108Z,17.71
2018-07-08T04:03:29.516Z,17.7
2018-07-08T04:44:14.467Z,20.98
2018-07-08T04:44:53.862Z,21.01
2018-07-08T04:45:34.264Z,21.21
2018-07-08T04:46:14.761Z,21.22
2018-07-08T04:46:55.165Z,21.3
2018-07-08T04:47:35.562Z,21.36
2018-07-08T04:48:16.048Z,21.49
2018-07-08T04:48:56.403Z,21.56
2018-07-08T04:49:36.857Z,21.75
2018-07-08T04:50:17.203Z,21.91
2018-07-08T04:50:57.755Z,21.98
2018-07-08T04:51:38.025Z,22.12
2018-07-08T04:52:18.444Z,22.26
2018-07-08T04:52:58.942Z,22.44
2018-07-08T04:53:39.275Z,22.57
2018-07-08T04:54:19.726Z,22.69
2018-07-08T04:55:00.116Z,22.75
2018-07-08T04:55:40.617Z,22.89
2018-07-08T04:56:21.021Z,23.04
2018-07-08T04:57:01.322Z,23
2018-07-08T04:57:41.776Z,23.19
2018-07-08T04:58:22.196Z,23.35
2018-07-08T04:59:03.100Z,23.38
2018-07-08T04:59:43.541Z,23.42
2018-07-08T05:00:23.962Z,23.47
2018-07-08T05:01:04.496Z,23.63
2018-07-08T05:01:44.887Z,23.72
2018-07-08T05:02:25.511Z,23.82
2018-07-08T05:03:05.847Z,23.9
2018-07-08T05:03:46.262Z,23.9
2018-07-08T05:04:27.142Z,24.09
2018-07-08T05:05:07.710Z,24.14
2018-07-08T05:05:48.263Z,24.19
2018-07-08T05:06:29.188Z,24.14
2018-07-08T05:07:09.532Z,24.18
2018-07-08T05:07:50.095Z,24.24
2018-07-08T05:08:31.097Z,24.36
2018-07-08T05:09:11.532Z,24.41
2018-07-08T05:09:52.123Z,24.41
2018-07-08T05:10:32.611Z,24.41
2018-07-08T05:11:13.157Z,24.53
2018-07-08T05:11:53.491Z,24.52
2018-07-08T05:12:34.096Z,24.59
2018-07-08T05:13:14.698Z,24.59
2018-07-08T05:13:55.778Z,24.55
2018-07-08T05:14:36.068Z,24.68
2018-07-08T05:15:16.499Z,24.75
2018-07-08T05:15:57.510Z,24.79
2018-07-08T05:16:37.922Z,24.86
2018-07-08T05:17:18.481Z,24.92
2018-07-08T05:17:59.070Z,24.98
2018-07-08T05:18:39.582Z,24.99
2018-07-08T05:19:19.996Z,24.93
2018-07-08T05:20:00.480Z,24.98
2018-07-08T05:20:40.848Z,25.04
2018-07-08T05:21:21.242Z,25.16
2018-07-08T05:22:01.666Z,25.27
2018-07-08T05:22:42.255Z,25.48
2018-07-08T05:23:22.671Z,25.54
2018-07-08T05:24:03.096Z,25.76
2018-07-08T05:24:43.538Z,25.86
2018-07-08T05:25:23.893Z,25.85
2018-07-08T05:26:04.399Z,25.94
2018-07-08T05:26:44.826Z,25.98
2018-07-08T05:27:25.261Z,26.04
2018-07-08T05:28:05.890Z,26.06
2018-07-08T05:28:47.765Z,25.98
2018-07-08T05:29:27.209Z,25.96
2018-07-08T05:30:08.451Z,25.91
2018-07-08T05:30:48.900Z,25.79
2018-07-08T05:31:29.363Z,25.79
2018-07-08T05:32:09.976Z,25.69
2018-07-08T05:32:50.516Z,25.59
2018-07-08T05:33:31.044Z,25.57
2018-07-08T05:34:11.450Z,25.67
2018-07-08T05:34:51.841Z,25.74
2018-07-08T05:35:32.312Z,25.75
2018-07-08T05:36:12.858Z,25.81
2018-07-08T05:36:53.259Z,25.93
2018-07-08T05:37:33.733Z,26.23
2018-07-08T05:38:14.221Z,26.12
2018-07-08T05:38:54.587Z,25.94
2018-07-08T05:39:35.527Z,25.82
2018-07-08T05:40:15.911Z,25.67
2018-07-08T05:40:56.436Z,25.46
2018-07-08T05:43:09.878Z,25.6
2018-07-08T05:43:52.310Z,25.69
2018-07-08T05:44:32.737Z,25.94
2018-07-08T05:45:13.162Z,26.16
2018-07-08T05:45:53.621Z,26.28
2018-07-08T05:46:34.245Z,26.24
2018-07-08T05:47:14.448Z,26.35
2018-07-08T05:47:55.194Z,26.31
2018-07-08T05:49:43.148Z,26.51
2018-07-08T05:50:25.151Z,26.5
2018-07-08T05:51:04.908Z,26.54
2018-07-08T05:51:45.326Z,26.56
2018-07-08T05:52:25.747Z,26.68
2018-07-08T05:53:06.131Z,26.66
2018-07-08T05:53:46.588Z,26.6
2018-07-08T05:54:27.062Z,26.6
2018-07-08T05:55:07.452Z,26.66
2018-07-08T05:55:47.874Z,26.83
2018-07-08T05:56:28.280Z,26.97
2018-07-08T05:57:08.798Z,27.08
2018-07-08T05:57:49.231Z,27.12
2018-07-08T05:58:29.785Z,27.15
2018-07-08T05:59:10.808Z,27.31
2018-07-08T05:59:51.211Z,27.39
2018-07-08T06:00:31.686Z,27.34
2018-07-08T06:01:12.043Z,27.45
2018-07-08T06:01:52.518Z,27.45
2018-07-08T06:02:33.254Z,27.48
2018-07-08T06:03:13.617Z,27.42
2018-07-08T06:03:54.053Z,27.49
2018-07-08T06:04:34.479Z,27.61
2018-07-08T06:05:15.229Z,27.65
2018-07-08T06:05:55.691Z,27.72
2018-07-08T06:06:36.290Z,27.86
2018-07-08T06:07:16.479Z,27.93
2018-07-08T06:07:56.887Z,28.01
2018-07-08T06:08:37.317Z,28.2
2018-07-08T06:09:17.742Z,28.2
2018-07-08T06:09:59.327Z,28.15
2018-07-08T06:10:39.797Z,28.03
2018-07-08T06:11:20.280Z,28.02
2018-07-08T06:12:00.645Z,28.21
2018-07-08T06:12:40.982Z,28.21
2018-07-08T06:13:21.437Z,28.02
2018-07-08T06:14:02.196Z,27.93
2018-07-08T06:14:42.582Z,27.91
2018-07-08T06:15:23.201Z,27.98
2018-07-08T06:17:21.015Z,27.84
2018-07-08T06:18:01.138Z,27.93
2018-07-08T06:18:41.607Z,27.9
2018-07-08T06:19:21.995Z,27.72
2018-07-08T06:20:02.613Z,27.84
2018-07-08T06:20:42.894Z,27.86
2018-07-08T06:21:23.320Z,27.84
2018-07-08T06:22:03.766Z,27.71
2018-07-08T06:22:44.212Z,27.63
2018-07-08T06:23:24.589Z,27.72
2018-07-08T06:24:05.037Z,27.68
2018-07-08T06:25:57.695Z,27.74
2018-07-08T06:26:37.804Z,27.84
2018-07-08T06:27:18.250Z,27.83
2018-07-08T06:27:58.664Z,27.91
2018-07-08T06:28:39.054Z,27.93
2018-07-08T06:29:19.540Z,27.95
2018-07-08T06:30:00.441Z,27.93
2018-07-08T06:30:40.927Z,27.87
2018-07-08T06:31:21.468Z,27.91
2018-07-08T06:32:01.851Z,27.91
2018-07-08T06:32:42.327Z,27.98
2018-07-08T06:33:22.712Z,28.02
2018-07-08T06:34:03.183Z,28.05
2018-07-08T06:34:43.566Z,28.21
2018-07-08T06:35:24.113Z,28.2
2018-07-08T06:36:04.416Z,28.18
2018-07-08T06:36:44.876Z,28.23
2018-07-08T06:37:25.278Z,28.4
2018-07-08T06:38:05.673Z,28.38
2018-07-08T06:38:46.130Z,28.43
2018-07-08T06:39:26.526Z,28.35
2018-07-08T06:40:06.936Z,28.46
2018-07-08T06:40:47.357Z,28.51
2018-07-08T06:41:27.782Z,28.46
2018-07-08T06:42:08.385Z,28.5
2018-07-08T06:42:48.879Z,28.38
2018-07-08T06:43:30.324Z,28.36
2018-07-08T06:44:10.572Z,28.21
2018-07-08T06:44:50.934Z,28.4
2018-07-08T06:45:31.581Z,28.23
2018-07-08T06:46:11.991Z,28.45
2018-07-08T06:46:52.460Z,28.43
2018-07-08T06:47:33.839Z,28.48
2018-07-08T06:48:14.919Z,28.52
2018-07-08T06:48:55.328Z,28.48
2018-07-08T06:49:35.764Z,28.45
2018-07-08T06:50:16.357Z,28.54
2018-07-08T06:50:56.762Z,28.61
2018-07-08T06:51:37.218Z,28.5
2018-07-08T06:52:17.604Z,28.7
2018-07-08T06:52:57.985Z,28.58
2018-07-08T06:53:38.509Z,28.67
2018-07-08T06:54:18.910Z,28.65
2018-07-08T06:54:59.662Z,28.69
2018-07-08T06:55:40.165Z,28.57
2018-07-08T06:56:20.577Z,28.4
2018-07-08T06:57:01.075Z,28.36
2018-07-08T06:57:41.473Z,28.36
2018-07-08T06:58:22.118Z,28.25
2018-07-08T06:59:03.017Z,28.2
2018-07-08T06:59:43.391Z,28.13
2018-07-08T07:00:23.832Z,27.95
2018-07-08T07:01:04.274Z,27.87
2018-07-08T07:01:44.767Z,27.81
2018-07-08T07:02:25.235Z,27.84
2018-07-08T07:03:05.914Z,27.69
2018-07-08T07:03:46.190Z,27.77
2018-07-08T07:04:26.851Z,27.83
2018-07-08T07:05:07.276Z,27.87
2018-07-08T07:05:47.694Z,27.91
2018-07-08T07:06:28.116Z,28.05
2018-07-08T07:07:08.639Z,28.09
2018-07-08T07:07:49.059Z,28.08
2018-07-08T07:08:29.448Z,28.06
2018-07-08T07:09:10.515Z,28.2
2018-07-08T07:09:51.023Z,28.24
2018-07-08T07:10:31.392Z,28.35
2018-07-08T07:11:11.904Z,28.25
2018-07-08T07:11:52.425Z,28.24
2018-07-08T07:12:32.891Z,28.35
2018-07-08T07:13:13.376Z,28.46
2018-07-08T07:13:53.721Z,28.46
2018-07-08T07:14:34.256Z,28.48
2018-07-08T07:15:14.661Z,28.42
2018-07-08T07:15:55.091Z,28.36
2018-07-08T07:16:35.921Z,28.35
2018-07-08T07:17:16.729Z,28.39
2018-07-08T07:17:57.127Z,28.36
2018-07-08T07:18:37.559Z,28.27
2018-07-08T07:19:18.059Z,28.24
2018-07-08T07:19:58.402Z,28.25
2018-07-08T07:20:38.813Z,28.3
2018-07-08T07:21:19.231Z,28.4
2018-07-08T07:21:59.607Z,28.35
2018-07-08T07:22:40.041Z,28.46
2018-07-08T07:23:20.525Z,28.45
2018-07-08T07:24:00.882Z,28.46
2018-07-08T07:24:41.328Z,28.58
2018-07-08T07:25:21.780Z,28.55
2018-07-08T07:26:02.167Z,28.74
2018-07-08T07:26:42.660Z,28.74
2018-07-08T07:27:23.059Z,28.74
2018-07-08T07:28:03.564Z,28.87
2018-07-08T07:28:43.996Z,28.72
2018-07-08T07:29:24.901Z,28.74
2018-07-08T07:30:05.604Z,28.91
2018-07-08T07:30:45.972Z,28.97
2018-07-08T07:31:26.914Z,28.94
2018-07-08T07:32:07.136Z,29.2
2018-07-08T07:33:55.377Z,29.07
2018-07-08T07:34:39.250Z,29
2018-07-08T07:35:19.777Z,28.89
2018-07-08T07:36:00.254Z,28.82
2018-07-08T07:36:40.679Z,28.87
2018-07-08T07:37:21.333Z,28.7
2018-07-08T07:38:01.678Z,28.74
2018-07-08T07:38:42.795Z,28.7
2018-07-08T07:39:23.749Z,28.73
2018-07-08T07:40:04.154Z,28.69
2018-07-08T07:40:45.097Z,28.74
2018-07-08T07:41:25.478Z,28.7
2018-07-08T07:42:05.970Z,28.87
2018-07-08T07:42:46.417Z,28.91
2018-07-08T07:43:26.722Z,28.92
2018-07-08T07:44:07.120Z,28.89
2018-07-08T07:44:47.566Z,28.94
2018-07-08T07:45:28.018Z,28.91
2018-07-08T07:46:08.576Z,28.72
2018-07-08T07:46:49.283Z,28.62
2018-07-08T07:47:30.779Z,28.52
2018-07-08T07:48:11.257Z,28.45
2018-07-08T07:48:51.635Z,28.43
2018-07-08T07:49:32.197Z,28.43
2018-07-08T07:50:12.925Z,28.43
2018-07-08T07:50:54.231Z,28.5
2018-07-08T07:51:34.620Z,28.52
2018-07-08T07:52:15.055Z,28.6
2018-07-08T07:52:55.459Z,28.69
2018-07-08T07:53:35.844Z,28.77
2018-07-08T07:54:16.300Z,28.76
2018-07-08T07:54:56.737Z,28.91
2018-07-08T07:55:37.114Z,29.03
2018-07-08T07:56:17.544Z,28.98
2018-07-08T07:56:57.920Z,28.98
2018-07-08T07:57:38.351Z,29.11
2018-07-08T07:58:18.760Z,29.2
2018-07-08T07:58:59.204Z,29.3
2018-07-08T07:59:40.257Z,29.26
2018-07-08T08:00:19.978Z,29.26
2018-07-08T08:01:00.416Z,29.17
2018-07-08T08:01:40.918Z,29.29
2018-07-08T08:02:21.345Z,29.35
2018-07-08T08:03:01.780Z,29.39
2018-07-08T08:03:42.554Z,29.36
2018-07-08T08:04:22.984Z,29.29
2018-07-08T08:05:03.396Z,29.27
2018-07-08T08:06:40.749Z,29.15
2018-07-08T08:07:21.035Z,29.26
2018-07-08T08:08:01.456Z,29.41
2018-07-08T08:08:41.901Z,29.36
2018-07-08T08:09:22.833Z,29.42
2018-07-08T08:10:03.231Z,29.52
2018-07-08T08:10:43.705Z,29.6
2018-07-08T08:11:24.057Z,29.66
2018-07-08T08:12:04.487Z,29.7
2018-07-08T08:12:45.069Z,29.69
2018-07-08T08:14:32.677Z,29.84
2018-07-08T08:15:16.865Z,29.81
2018-07-08T08:15:57.596Z,29.78
2018-07-08T08:16:38.031Z,29.85
2018-07-08T08:17:18.860Z,29.81
2018-07-08T08:17:59.227Z,29.66
2018-07-08T08:18:39.743Z,29.67
2018-07-08T08:19:20.060Z,29.55
2018-07-08T08:20:00.594Z,29.69
2018-07-08T08:20:40.968Z,29.85
2018-07-08T08:21:21.381Z,29.89
2018-07-08T08:22:01.871Z,30.07
2018-07-08T08:22:42.224Z,30.18
2018-07-08T08:23:22.718Z,30.3
2018-07-08T08:24:03.163Z,30.25
2018-07-08T08:24:43.658Z,30.36
2018-07-08T08:25:24.015Z,30.29
2018-07-08T08:26:04.412Z,30.34
2018-07-08T08:26:44.881Z,30.26
2018-07-08T08:27:25.885Z,30.21
2018-07-08T08:28:06.280Z,30.16
2018-07-08T08:28:46.677Z,30.25
2018-07-08T08:29:27.095Z,30.36
2018-07-08T08:30:07.525Z,30.32
2018-07-08T08:30:47.954Z,30.38
2018-07-08T08:31:28.345Z,30.56
2018-07-08T08:32:08.806Z,30.57
2018-07-08T08:32:49.261Z,30.64
2018-07-08T08:33:29.651Z,30.63
2018-07-08T08:34:10.086Z,30.66
2018-07-08T08:34:50.470Z,30.7
2018-07-08T08:35:30.932Z,30.79
2018-07-08T08:36:11.311Z,30.82
2018-07-08T08:36:51.677Z,30.85
2018-07-08T08:37:32.108Z,31.01
2018-07-08T08:38:12.564Z,30.94
2018-07-08T08:38:52.932Z,31.05
2018-07-08T08:39:33.354Z,31.13
2018-07-08T08:40:13.771Z,31.18
2018-07-08T08:40:54.561Z,31.42
2018-07-08T08:41:34.763Z,31.56
2018-07-08T08:42:15.360Z,31.53
2018-07-08T08:42:55.673Z,31.53
2018-07-08T08:43:36.058Z,31.62
2018-07-08T08:44:16.469Z,31.56
2018-07-08T08:44:56.908Z,31.56
2018-07-08T08:45:37.326Z,31.56
2018-07-08T08:46:18.188Z,31.57
2018-07-08T08:46:58.610Z,31.67
2018-07-08T08:47:39.101Z,31.65
2018-07-08T08:48:19.489Z,31.69
2018-07-08T08:48:59.899Z,31.76
2018-07-08T08:49:40.362Z,31.76
2018-07-08T08:50:20.746Z,31.71
2018-07-08T08:51:01.161Z,31.64
2018-07-08T08:51:41.670Z,31.67
2018-07-08T08:52:22.107Z,31.67
2018-07-08T08:53:02.509Z,31.62
2018-07-08T08:53:42.921Z,31.5
2018-07-08T08:54:23.373Z,31.54
2018-07-08T08:55:03.907Z,31.72
2018-07-08T08:55:44.745Z,31.75
2018-07-08T08:56:25.135Z,31.65
2018-07-08T08:57:05.622Z,31.74
2018-07-08T08:57:46.494Z,31.71
2018-07-08T08:58:26.954Z,31.74
2018-07-08T08:59:07.339Z,31.64
2018-07-08T08:59:47.760Z,31.54
2018-07-08T09:00:28.216Z,31.53
2018-07-08T09:01:08.655Z,31.5
2018-07-08T09:01:49.133Z,31.54
2018-07-08T09:02:29.530Z,31.56
2018-07-08T09:03:09.889Z,31.57
2018-07-08T09:03:50.431Z,31.52
2018-07-08T09:04:30.780Z,31.56
2018-07-08T09:05:11.162Z,31.57
2018-07-08T09:05:51.591Z,31.72
2018-07-08T09:06:31.991Z,31.79
2018-07-08T09:07:12.369Z,31.9
2018-07-08T09:07:52.801Z,31.91
2018-07-08T09:08:33.251Z,32.06
2018-07-08T09:09:13.683Z,32.06
2018-07-08T09:09:54.136Z,31.99
2018-07-08T09:10:35.540Z,31.95
2018-07-08T09:11:15.908Z,31.87
2018-07-08T09:11:56.375Z,31.78
2018-07-08T09:12:36.882Z,31.75
2018-07-08T09:13:17.227Z,31.91
2018-07-08T09:13:57.603Z,31.95
2018-07-08T09:14:38.582Z,32.05
2018-07-08T09:15:18.959Z,32.13
2018-07-08T09:15:59.345Z,32.13
2018-07-08T09:16:39.798Z,32.06
2018-07-08T09:17:20.680Z,32.06
2018-07-08T09:18:01.084Z,32.09
2018-07-08T09:18:41.523Z,32.05
2018-07-08T09:19:21.963Z,32.03
2018-07-08T09:20:02.678Z,32.02
2018-07-08T09:20:43.151Z,31.95
2018-07-08T09:21:23.599Z,32.02
2018-07-08T09:22:04.071Z,32.03
2018-07-08T09:22:44.414Z,31.94
2018-07-08T09:23:24.836Z,31.84
2018-07-08T09:24:05.509Z,31.82
2018-07-08T09:24:46.449Z,31.52
2018-07-08T09:25:27.058Z,31.52
2018-07-08T09:26:07.362Z,31.49
2018-07-08T09:26:47.866Z,31.64
2018-07-08T09:27:28.385Z,31.46
2018-07-08T09:28:08.905Z,31.5
2018-07-08T09:28:49.359Z,31.54
2018-07-08T09:29:29.838Z,31.67
2018-07-08T09:30:10.407Z,31.71
2018-07-08T09:30:50.975Z,31.68
2018-07-08T09:31:31.577Z,31.85
2018-07-08T09:32:11.862Z,31.85
2018-07-08T09:34:05.448Z,31.97
2018-07-08T09:34:46.743Z,31.9
2018-07-08T09:35:27.110Z,31.91
2018-07-08T09:36:07.591Z,31.92
2018-07-08T09:36:48.039Z,31.85